Time;durP1;ratioP1;P1;durP2;ratioP2;P2;SDS_P1;SDS_P2;PMS_P1;PMS_P2;Temp;Humidity;BMP_temperature;BMP_pressure;BME280_temperature;BME280_humidity;BME280_pressure;Samples;Min_cycle;Max_cycle;Signal;HPM_P1;HPM_P2
2023/10/04 00:00:53;;;;;;;4.07;0.97;;;;;;;13.77;100.00;101533.59;5056740;28;20445;-74
2023/10/04 00:03:20;;;;;;;3.97;1.00;;;;;;;13.74;100.00;101545.06;5056807;28;20930;-74
2023/10/04 00:05:48;;;;;;;3.97;0.90;;;;;;;13.74;100.00;101550.53;5056951;28;20442;-74
2023/10/04 00:08:15;;;;;;;4.23;0.60;;;;;;;13.68;100.00;101557.97;5056590;28;20826;-74
2023/10/04 00:10:44;;;;;;;4.00;0.90;;;;;;;13.72;100.00;101571.78;5057072;28;20445;-74
2023/10/04 00:13:12;;;;;;;4.13;0.73;;;;;;;13.69;100.00;101566.94;5056950;28;20483;-74
2023/10/04 00:15:39;;;;;;;4.90;0.77;;;;;;;13.69;100.00;101575.94;5056396;28;20446;-74
2023/10/04 00:18:07;;;;;;;5.13;0.77;;;;;;;13.78;100.00;101576.84;5056383;28;20539;-74
2023/10/04 00:20:34;;;;;;;3.27;0.77;;;;;;;13.78;100.00;101571.41;5056393;28;20438;-74
2023/10/04 00:23:04;;;;;;;3.30;0.50;;;;;;;13.77;100.00;101569.00;5056466;28;20499;-74
2023/10/04 00:25:30;;;;;;;4.73;0.87;;;;;;;13.73;100.00;101566.06;5056424;28;20445;-74
2023/10/04 00:27:58;;;;;;;3.60;0.80;;;;;;;13.72;100.00;101560.88;5056437;28;20497;-74
2023/10/04 00:30:27;;;;;;;3.97;1.00;;;;;;;13.68;100.00;101576.19;5056583;28;20503;-73
2023/10/04 00:32:55;;;;;;;3.20;0.77;;;;;;;13.71;100.00;101570.97;5056131;28;20453;-74
2023/10/04 00:35:23;;;;;;;3.67;0.80;;;;;;;13.68;100.00;101578.94;5055823;28;20442;-73
2023/10/04 00:37:55;;;;;;;3.47;0.90;;;;;;;13.60;100.00;101580.44;5056128;28;20498;-73
2023/10/04 00:40:26;;;;;;;3.70;0.70;;;;;;;13.60;100.00;101575.00;5055707;28;20839;-73
2023/10/04 00:42:54;;;;;;;3.43;0.90;;;;;;;13.50;100.00;101581.41;5055946;28;20438;-73
2023/10/04 00:45:24;;;;;;;5.57;0.77;;;;;;;13.49;100.00;101584.41;5055981;28;20443;-74
2023/10/04 00:47:56;;;;;;;2.87;0.70;;;;;;;13.46;100.00;101590.44;5056101;28;20523;-73
2023/10/04 00:50:25;;;;;;;2.90;0.70;;;;;;;13.41;100.00;101593.22;5055929;28;20434;-74
2023/10/04 00:52:57;;;;;;;4.00;0.80;;;;;;;13.36;100.00;101586.75;5055760;28;20445;-73
2023/10/04 00:55:24;;;;;;;2.57;0.60;;;;;;;13.42;100.00;101584.00;5055772;28;20481;-73
2023/10/04 00:57:53;;;;;;;2.93;0.73;;;;;;;13.35;100.00;101582.44;5055589;28;20451;-73
2023/10/04 01:00:22;;;;;;;3.53;0.90;;;;;;;13.36;100.00;101578.59;5055344;28;20442;-74
2023/10/04 01:02:49;;;;;;;2.73;0.70;;;;;;;13.31;100.00;101586.84;5055651;28;20521;-74
2023/10/04 01:05:18;;;;;;;2.70;0.70;;;;;;;13.24;100.00;101572.81;5055306;28;20779;-74
2023/10/04 01:07:47;;;;;;;3.57;1.00;;;;;;;13.25;100.00;101585.31;5054703;28;20474;-74
2023/10/04 01:10:16;;;;;;;2.83;0.67;;;;;;;13.24;100.00;101577.44;5055477;28;20988;-74
2023/10/04 01:12:46;;;;;;;3.70;0.70;;;;;;;13.26;100.00;101584.19;5055448;28;20542;-74
2023/10/04 01:15:28;;;;;;;2.60;0.53;;;;;;;13.27;100.00;101582.28;5056086;28;20457;-74
2023/10/04 01:17:57;;;;;;;3.40;0.80;;;;;;;13.21;100.00;101581.53;5055410;28;20545;-74
2023/10/04 01:20:24;;;;;;;2.60;0.50;;;;;;;13.18;100.00;101586.75;5055279;28;20438;-74
2023/10/04 01:22:53;;;;;;;2.43;0.50;;;;;;;13.16;100.00;101591.69;5055221;28;20442;-74
2023/10/04 01:25:20;;;;;;;3.37;0.70;;;;;;;13.12;100.00;101580.56;5055151;28;20446;-74
2023/10/04 01:27:47;;;;;;;3.50;0.70;;;;;;;13.18;100.00;101579.38;5054777;28;21028;-74
2023/10/04 01:30:16;;;;;;;4.50;0.70;;;;;;;13.10;100.00;101586.31;5055755;28;20446;-74
2023/10/04 01:32:43;;;;;;;2.73;0.57;;;;;;;13.11;100.00;101587.13;5054906;28;20990;-74
2023/10/04 01:35:11;;;;;;;2.93;0.80;;;;;;;13.09;100.00;101568.34;5055179;28;20526;-73
2023/10/04 01:37:39;;;;;;;3.60;0.90;;;;;;;13.11;100.00;101574.31;5054956;28;20973;-73
2023/10/04 01:40:12;;;;;;;6.17;0.77;;;;;;;13.12;100.00;101572.41;5054948;28;20481;-73
2023/10/04 01:42:40;;;;;;;4.27;0.80;;;;;;;13.12;100.00;101572.41;5055001;28;20426;-73
2023/10/04 01:45:10;;;;;;;3.90;1.13;;;;;;;13.08;100.00;101580.34;5055064;28;20450;-73
2023/10/04 01:47:36;;;;;;;2.97;0.67;;;;;;;13.10;100.00;101571.88;5054728;28;20532;-73
2023/10/04 01:50:05;;;;;;;3.13;0.60;;;;;;;13.06;100.00;101579.84;5054712;28;20438;-73
2023/10/04 01:52:33;;;;;;;2.60;0.50;;;;;;;13.09;100.00;101575.72;5054683;28;20818;-73
2023/10/04 01:55:00;;;;;;;4.70;0.90;;;;;;;13.10;100.00;101572.72;5054540;28;20818;-73
2023/10/04 01:57:28;;;;;;;4.97;1.03;;;;;;;13.11;100.00;101571.59;5054481;28;20819;-73
2023/10/04 01:59:55;;;;;;;3.30;0.80;;;;;;;13.13;100.00;101571.28;5054810;28;20478;-73
2023/10/04 02:02:22;;;;;;;3.23;0.73;;;;;;;13.13;100.00;101574.81;5054645;28;20853;-73
2023/10/04 02:04:53;;;;;;;4.73;0.63;;;;;;;13.10;100.00;101566.44;5054194;28;20926;-73
2023/10/04 02:07:22;;;;;;;3.43;1.00;;;;;;;13.06;100.00;101573.59;5054440;28;20473;-73
2023/10/04 02:09:48;;;;;;;3.23;0.60;;;;;;;13.07;100.00;101575.19;5054590;28;20443;-74
2023/10/04 02:12:18;;;;;;;3.47;0.80;;;;;;;13.07;100.00;101576.00;5054326;28;20533;-73
2023/10/04 02:14:46;;;;;;;5.27;0.80;;;;;;;13.07;100.00;101572.47;5054462;28;20537;-73
2023/10/04 02:17:16;;;;;;;3.87;0.70;;;;;;;13.05;100.00;101578.19;5054534;28;20466;-73
2023/10/04 02:19:43;;;;;;;3.03;0.67;;;;;;;13.06;100.00;101576.31;5053384;28;20485;-71
2023/10/04 02:22:10;;;;;;;3.40;0.90;;;;;;;13.08;100.00;101579.53;5054757;28;20451;-71
2023/10/04 02:24:38;;;;;;;6.17;1.17;;;;;;;13.08;100.00;101579.53;5054360;28;20466;-77
2023/10/04 02:27:06;;;;;;;3.57;0.70;;;;;;;13.13;100.00;101576.75;5053719;28;20462;-73
2023/10/04 02:29:34;;;;;;;3.80;0.80;;;;;;;13.14;100.00;101581.06;5053652;28;20986;-73
2023/10/04 02:32:08;;;;;;;3.40;0.87;;;;;;;13.13;100.00;101582.97;5053922;28;20449;-73
2023/10/04 02:34:35;;;;;;;4.50;1.20;;;;;;;13.13;100.00;101576.75;5053945;28;20838;-73
2023/10/04 02:37:06;;;;;;;4.90;1.07;;;;;;;13.13;100.00;101582.19;5053792;28;20462;-73
2023/10/04 02:39:33;;;;;;;3.87;0.80;;;;;;;13.09;100.00;101578.41;5054112;28;20477;-73
2023/10/04 02:42:00;;;;;;;3.90;0.80;;;;;;;13.08;100.00;101580.34;5053981;28;20434;-73
2023/10/04 02:44:26;;;;;;;4.23;0.77;;;;;;;13.06;100.00;101581.75;5053505;28;20819;-73
2023/10/04 02:46:53;;;;;;;6.03;0.97;;;;;;;13.07;100.00;101584.16;5054011;28;20541;-73
2023/10/04 02:49:21;;;;;;;4.07;1.00;;;;;;;13.06;100.00;101588.00;5054081;28;20846;-73
2023/10/04 02:51:48;;;;;;;3.80;0.83;;;;;;;13.01;100.00;101588.03;5053539;28;20438;-73
2023/10/04 02:54:16;;;;;;;4.10;1.33;;;;;;;13.00;100.00;101580.19;5053604;28;20525;-73
2023/10/04 02:56:45;;;;;;;3.40;0.73;;;;;;;13.01;100.00;101588.03;5053553;28;20466;-73
2023/10/04 02:59:16;;;;;;;3.93;1.00;;;;;;;13.00;100.00;101589.16;5053525;28;20849;-73
2023/10/04 03:01:43;;;;;;;3.83;1.20;;;;;;;13.05;100.00;101580.09;5053514;28;20442;-73
2023/10/04 03:04:11;;;;;;;3.90;1.23;;;;;;;13.01;100.00;101576.34;5053138;28;20875;-73
2023/10/04 03:06:40;;;;;;;4.27;1.20;;;;;;;13.00;100.00;101578.28;5053258;28;20492;-73
2023/10/04 03:09:07;;;;;;;4.13;1.00;;;;;;;12.97;100.00;101575.31;5053421;28;20465;-73
2023/10/04 03:11:34;;;;;;;3.73;0.90;;;;;;;12.93;100.00;101577.03;5053726;28;20488;-73
2023/10/04 03:14:02;;;;;;;4.90;1.37;;;;;;;12.89;100.00;101590.41;5053766;28;20435;-73
2023/10/04 03:16:29;;;;;;;3.47;0.80;;;;;;;12.86;100.00;101580.91;5052991;28;20462;-73
2023/10/04 03:18:55;;;;;;;3.20;0.73;;;;;;;12.85;100.00;101579.28;5053182;28;20485;-73
2023/10/04 03:21:26;;;;;;;3.40;0.70;;;;;;;12.87;100.00;101577.06;5053384;28;20466;-73
2023/10/04 03:23:55;;;;;;;3.77;0.97;;;;;;;12.84;100.00;101583.13;5053728;28;20419;-73
2023/10/04 03:26:22;;;;;;;4.70;1.30;;;;;;;12.91;100.00;101579.22;5053281;28;20508;-73
2023/10/04 03:28:49;;;;;;;4.10;1.00;;;;;;;12.88;100.00;101591.47;5053317;28;20438;-73
2023/10/04 03:31:18;;;;;;;7.40;1.57;;;;;;;12.86;100.00;101594.50;5056521;28;20524;-73
2023/10/04 03:33:45;;;;;;;5.07;1.30;;;;;;;12.86;100.00;101593.69;5056984;28;20486;-73
2023/10/04 03:36:15;;;;;;;3.67;1.30;;;;;;;12.80;100.00;101598.41;5057393;28;20819;-73
2023/10/04 03:38:42;;;;;;;4.80;1.40;;;;;;;12.86;100.00;101599.94;5057508;28;20855;-73
2023/10/04 03:41:10;;;;;;;3.83;1.40;;;;;;;12.78;100.00;101597.84;5057178;28;20872;-73
2023/10/04 03:43:37;;;;;;;4.67;1.13;;;;;;;12.79;100.00;101602.22;5056760;28;20844;-74
2023/10/04 03:46:16;;;;;;;3.43;1.03;;;;;;;12.74;100.00;101607.69;5057012;28;20462;-73
2023/10/04 03:48:43;;;;;;;10.30;1.40;;;;;;;12.71;100.00;101602.84;5056736;28;20423;-73
2023/10/04 03:51:10;;;;;;;4.43;1.53;;;;;;;12.70;100.00;101609.38;5057337;28;20540;-73
2023/10/04 03:53:37;;;;;;;3.70;1.07;;;;;;;12.69;100.00;101607.75;5056938;28;20442;-73
2023/10/04 03:56:04;;;;;;;5.37;1.60;;;;;;;12.73;100.00;101611.53;5057266;28;20469;-73
2023/10/04 03:58:34;;;;;;;4.20;1.27;;;;;;;12.75;100.00;101609.34;5056935;28;20478;-73
2023/10/04 04:01:01;;;;;;;5.13;1.53;;;;;;;12.77;100.00;101615.28;5056923;28;20496;-72
2023/10/04 04:03:28;;;;;;;5.77;1.90;;;;;;;12.78;100.00;101597.84;5056666;28;20441;-71
2023/10/04 04:05:54;;;;;;;4.83;1.67;;;;;;;12.80;100.00;101598.41;5056923;28;20521;-74
2023/10/04 04:08:21;;;;;;;4.50;1.60;;;;;;;12.84;100.00;101604.06;5056414;28;20553;-73
2023/10/04 04:10:49;;;;;;;4.93;2.23;;;;;;;12.88;100.00;101613.22;5056315;28;20439;-73
2023/10/04 04:13:16;;;;;;;5.47;1.20;;;;;;;12.84;100.00;101613.03;5056607;28;20456;-73
2023/10/04 04:15:44;;;;;;;4.67;1.60;;;;;;;12.84;100.00;101618.47;5056479;28;20525;-73
2023/10/04 04:18:20;;;;;;;3.80;1.20;;;;;;;12.88;100.00;101618.66;5056926;28;20465;-73
2023/10/04 04:20:47;;;;;;;5.17;1.50;;;;;;;12.91;100.00;101620.00;5056410;28;20465;-74
2023/10/04 04:23:15;;;;;;;3.60;1.10;;;;;;;12.87;100.00;101617.88;5056989;28;20534;-74
2023/10/04 04:25:43;;;;;;;4.60;1.63;;;;;;;12.91;100.00;101622.72;5056057;28;20924;-74
2023/10/04 04:28:12;;;;;;;4.80;1.73;;;;;;;12.86;100.00;101621.69;5056582;28;20442;-74
2023/10/04 04:30:39;;;;;;;4.20;1.03;;;;;;;12.91;100.00;101622.72;5056404;28;20802;-74
2023/10/04 04:33:07;;;;;;;8.33;2.00;;;;;;;12.89;100.00;101623.03;5056197;28;20538;-73
2023/10/04 04:35:52;;;;;;;5.77;1.83;;;;;;;12.88;100.00;101624.09;5056639;28;20445;-74
2023/10/04 04:38:20;;;;;;;4.80;1.30;;;;;;;12.85;100.00;101622.78;5055859;28;20480;-74
2023/10/04 04:40:49;;;;;;;4.30;1.20;;;;;;;12.83;100.00;101622.25;5055473;28;20993;-74
2023/10/04 04:43:26;;;;;;;4.97;1.53;;;;;;;12.83;100.00;101619.53;5054957;28;20910;-74
2023/10/04 04:45:54;;;;;;;5.90;1.90;;;;;;;12.82;100.00;101615.22;5055728;28;20426;-74
2023/10/04 04:48:24;;;;;;;6.20;1.73;;;;;;;12.77;100.00;101609.84;5055758;28;20453;-73
2023/10/04 04:50:52;;;;;;;4.90;1.87;;;;;;;12.81;100.00;101613.59;5056349;28;20761;-74
2023/10/04 04:53:21;;;;;;;4.40;1.17;;;;;;;12.85;100.00;101613.84;5055649;28;20812;-72
2023/10/04 04:55:48;;;;;;;6.37;1.60;;;;;;;12.85;100.00;101622.00;5055299;28;20446;-72
2023/10/04 04:58:15;;;;;;;4.90;1.47;;;;;;;12.80;100.00;101616.63;5055836;28;20534;-73
2023/10/04 05:00:43;;;;;;;5.53;1.57;;;;;;;12.83;100.00;101626.91;5055447;28;20968;-72
2023/10/04 05:03:10;;;;;;;9.40;2.53;;;;;;;12.79;100.00;101626.69;5055085;28;20445;-73
2023/10/04 05:05:39;;;;;;;4.77;1.90;;;;;;;12.80;100.00;101624.78;5055890;28;20472;-72
2023/10/04 05:08:06;;;;;;;4.90;1.13;;;;;;;12.79;100.00;101632.13;5055144;28;20476;-72
2023/10/04 05:10:38;;;;;;;4.20;1.30;;;;;;;12.80;100.00;101625.59;5055152;28;20525;-73
2023/10/04 05:13:07;;;;;;;5.30;1.33;;;;;;;12.81;100.00;101629.09;5055478;28;20423;-73
2023/10/04 05:15:35;;;;;;;4.70;1.60;;;;;;;12.81;100.00;101627.19;5055736;28;21002;-73
2023/10/04 05:18:10;;;;;;;9.10;1.20;;;;;;;12.80;100.00;101619.34;5055068;28;20996;-72
2023/10/04 05:20:38;;;;;;;5.00;1.40;;;;;;;12.79;100.00;101631.28;5055240;28;20465;-72
2023/10/04 05:23:05;;;;;;;4.27;1.23;;;;;;;12.80;100.00;101625.59;5054902;28;20442;-73
2023/10/04 05:25:32;;;;;;;4.00;1.20;;;;;;;12.80;100.00;101631.03;5055475;28;20440;-72
2023/10/04 05:28:04;;;;;;;3.63;1.10;;;;;;;12.85;100.00;101630.94;5055486;28;20461;-72
2023/10/04 05:30:32;;;;;;;4.20;1.27;;;;;;;12.83;100.00;101637.78;5055464;28;20531;-72
2023/10/04 05:32:58;;;;;;;5.27;1.43;;;;;;;12.83;100.00;101640.50;5055099;28;20469;-72
2023/10/04 05:35:26;;;;;;;3.50;1.00;;;;;;;12.82;100.00;101639.69;5055291;28;20503;-72
2023/10/04 05:37:54;;;;;;;3.83;1.00;;;;;;;12.83;100.00;101646.72;5055084;28;20466;-72
2023/10/04 05:40:25;;;;;;;5.07;1.03;;;;;;;12.85;100.00;101646.47;5054567;28;20525;-73
2023/10/04 05:42:54;;;;;;;5.00;1.30;;;;;;;12.85;100.00;101650.00;5054666;28;20831;-72
2023/10/04 05:45:21;;;;;;;4.70;1.70;;;;;;;12.83;100.00;101649.44;5054804;28;20478;-72
2023/10/04 05:47:48;;;;;;;3.47;0.93;;;;;;;12.86;100.00;101657.03;5054905;28;20468;-72
2023/10/04 05:50:17;;;;;;;4.97;1.00;;;;;;;12.89;100.00;101655.66;5055065;28;20442;-72
2023/10/04 05:52:44;;;;;;;3.40;0.70;;;;;;;12.90;100.00;101651.84;5054536;28;20446;-72
2023/10/04 05:55:13;;;;;;;4.03;1.30;;;;;;;12.87;100.00;101666.81;5055159;28;20521;-72
2023/10/04 05:57:40;;;;;;;4.17;1.53;;;;;;;12.88;100.00;101665.72;5054498;28;20493;-72
2023/10/04 06:00:22;;;;;;;3.70;0.90;;;;;;;12.91;100.00;101663.53;5054794;28;20569;-73
2023/10/04 06:02:50;;;;;;;4.37;1.37;;;;;;;12.97;100.00;101675.94;5055075;28;20430;-73
2023/10/04 06:05:18;;;;;;;5.87;1.10;;;;;;;13.06;100.00;101679.69;5054414;28;20450;-73
2023/10/04 06:07:46;;;;;;;3.70;1.00;;;;;;;13.03;100.00;101675.59;5054009;28;20489;-73
2023/10/04 06:10:16;;;;;;;3.60;0.90;;;;;;;13.06;100.00;101676.94;5054194;28;20434;-73
2023/10/04 06:12:43;;;;;;;4.33;1.10;;;;;;;13.09;100.00;101684.50;5054404;28;20919;-72
2023/10/04 06:15:13;;;;;;;3.30;0.53;;;;;;;13.12;100.00;101692.09;5054358;28;20807;-75
2023/10/04 06:17:42;;;;;;;4.80;1.20;;;;;;;13.20;100.00;101696.91;5054669;28;20516;-75
2023/10/04 06:20:24;;;;;;;3.30;0.70;;;;;;;13.26;100.00;101698.47;5055036;28;20474;-76
2023/10/04 06:22:51;;;;;;;5.10;0.73;;;;;;;13.27;100.00;101702.81;5054815;28;20426;-74
2023/10/04 06:25:21;;;;;;;4.23;0.83;;;;;;;13.34;100.00;101714.16;5055060;28;20786;-75
2023/10/04 06:27:48;;;;;;;4.40;1.20;;;;;;;13.36;100.00;101720.09;5054250;28;21032;-75
2023/10/04 06:30:17;;;;;;;5.10;1.40;;;;;;;13.41;100.00;101721.94;5054251;28;20446;-74
2023/10/04 06:32:43;;;;;;;7.30;1.27;;;;;;;13.44;100.00;101715.94;5054047;28;20457;-72
2023/10/04 06:35:11;;;;;;;7.00;1.10;;;;;;;13.51;100.00;101719.13;5053915;28;20445;-74
2023/10/04 06:37:37;;;;;;;4.10;0.87;;;;;;;13.54;100.00;101723.16;5053886;28;20470;-74
2023/10/04 06:40:14;;;;;;;4.20;1.10;;;;;;;13.60;100.00;101727.44;5053773;28;20486;-74
2023/10/04 06:42:43;;;;;;;4.63;1.20;;;;;;;13.65;100.00;101730.09;5053849;28;20422;-74
2023/10/04 06:45:12;;;;;;;4.60;1.27;;;;;;;13.72;100.00;101735.97;5053718;28;20541;-75
2023/10/04 06:47:39;;;;;;;4.60;1.20;;;;;;;13.79;100.00;101743.78;5053850;28;20462;-75
2023/10/04 06:50:07;;;;;;;4.50;1.37;;;;;;;13.81;100.00;101749.72;5053989;28;20529;-76
2023/10/04 06:52:34;;;;;;;4.97;1.20;;;;;;;13.87;100.00;101749.38;5054053;28;20462;-75
2023/10/04 06:55:01;;;;;;;4.00;0.90;;;;;;;13.97;100.00;101747.63;5054326;28;20453;-75
2023/10/04 06:57:30;;;;;;;4.50;1.03;;;;;;;14.04;100.00;101753.50;5053519;28;20521;-74
2023/10/04 06:59:59;;;;;;;3.87;0.80;;;;;;;14.11;100.00;101753.94;5053235;28;20521;-75
2023/10/04 07:02:26;;;;;;;4.30;1.30;;;;;;;14.14;100.00;101758.78;5053877;28;20442;-75
2023/10/04 07:04:53;;;;;;;3.70;1.00;;;;;;;14.07;100.00;101752.91;5053074;28;20485;-74
2023/10/04 07:07:19;;;;;;;5.00;0.80;;;;;;;14.15;100.00;101760.41;5053105;28;20557;-74
2023/10/04 07:09:46;;;;;;;3.13;0.87;;;;;;;14.16;100.00;101753.84;5053469;28;20934;-74
2023/10/04 07:12:13;;;;;;;4.37;1.23;;;;;;;14.18;99.58;101759.81;5053104;28;20845;-74
2023/10/04 07:14:40;;;;;;;4.40;0.80;;;;;;;14.23;99.62;101765.19;5053091;28;20521;-75
2023/10/04 07:17:09;;;;;;;3.70;0.87;;;;;;;14.25;99.36;101759.44;5053341;28;20458;-74
2023/10/04 07:19:37;;;;;;;4.07;1.43;;;;;;;14.25;99.93;101770.34;5053445;28;20950;-75
2023/10/04 07:22:03;;;;;;;3.90;0.90;;;;;;;14.27;100.00;101763.50;5052994;28;20990;-75
2023/10/04 07:24:32;;;;;;;2.97;0.80;;;;;;;14.32;100.00;101765.31;5053561;28;20473;-75
2023/10/04 07:26:59;;;;;;;3.80;0.73;;;;;;;14.37;99.84;101773.41;5053189;28;20531;-75
2023/10/04 07:29:26;;;;;;;3.47;0.90;;;;;;;14.36;98.87;101777.25;5053253;28;20481;-75
2023/10/04 07:31:53;;;;;;;3.23;0.87;;;;;;;14.35;99.84;101772.91;5053285;28;20508;-74
2023/10/04 07:34:23;;;;;;;3.40;1.00;;;;;;;14.37;100.00;101785.13;5053194;28;20438;-75
2023/10/04 07:36:51;;;;;;;3.80;0.90;;;;;;;14.46;98.56;101779.00;5053258;28;20466;-75
2023/10/04 07:39:21;;;;;;;4.87;1.60;;;;;;;14.51;98.24;101779.75;5053541;28;20442;-75
2023/10/04 07:41:47;;;;;;;2.93;0.90;;;;;;;14.53;97.70;101790.38;5053877;28;20868;-74
2023/10/04 07:44:14;;;;;;;4.80;1.10;;;;;;;14.55;98.26;101791.69;5053313;28;20533;-75
2023/10/04 07:46:42;;;;;;;2.80;0.70;;;;;;;14.56;97.87;101782.41;5052760;28;20965;-74
2023/10/04 07:49:09;;;;;;;6.47;1.00;;;;;;;14.56;99.00;101787.03;5053130;28;20438;-74
2023/10/04 07:51:38;;;;;;;2.70;0.80;;;;;;;14.60;99.42;101783.41;5053544;28;20449;-75
2023/10/04 07:54:07;;;;;;;3.27;0.80;;;;;;;14.68;98.93;101779.19;5053029;28;20438;-74
2023/10/04 07:56:35;;;;;;;3.60;1.07;;;;;;;14.75;98.25;101776.91;5053213;28;20899;-74
2023/10/04 07:59:02;;;;;;;2.60;0.67;;;;;;;14.87;97.83;101793.63;5053033;28;20442;-74
2023/10/04 08:01:29;;;;;;;6.90;0.97;;;;;;;14.93;96.76;101788.06;5052854;28;20485;-74
2023/10/04 08:03:57;;;;;;;4.33;0.90;;;;;;;14.96;96.68;101796.44;5053326;28;20789;-74
2023/10/04 08:06:24;;;;;;;3.50;1.10;;;;;;;15.05;96.19;101793.81;5052599;28;20516;-74
2023/10/04 08:08:52;;;;;;;3.13;0.90;;;;;;;15.11;95.43;101792.63;5052974;28;20480;-73
2023/10/04 08:11:19;;;;;;;3.10;0.97;;;;;;;15.14;94.75;101792.03;5052936;28;20438;-74
2023/10/04 08:13:46;;;;;;;3.60;1.20;;;;;;;15.18;96.10;101795.75;5053201;28;20442;-74
2023/10/04 08:16:14;;;;;;;3.00;0.93;;;;;;;15.30;94.83;101790.59;5052872;28;20545;-72
2023/10/04 08:18:40;;;;;;;3.20;0.77;;;;;;;15.43;93.57;101802.66;5056120;28;20934;-73
2023/10/04 08:21:07;;;;;;;3.47;1.00;;;;;;;15.42;93.00;101800.22;5056068;28;20577;-74
2023/10/04 08:23:34;;;;;;;2.87;0.97;;;;;;;15.40;92.99;101816.91;5057119;28;20442;-74
2023/10/04 08:26:02;;;;;;;3.20;1.00;;;;;;;15.37;93.59;101812.06;5056133;28;20958;-74
2023/10/04 08:28:29;;;;;;;2.80;0.80;;;;;;;15.35;95.54;101820.53;5056264;28;20852;-74
2023/10/04 08:30:56;;;;;;;3.20;0.83;;;;;;;15.41;94.66;101818.53;5055922;28;20942;-73
2023/10/04 08:33:32;;;;;;;3.30;0.90;;;;;;;15.53;93.96;101821.53;5056215;28;20474;-73
2023/10/04 08:35:59;;;;;;;2.37;0.60;;;;;;;15.51;93.67;101822.97;5056211;28;20462;-74
2023/10/04 08:38:26;;;;;;;2.33;0.67;;;;;;;15.49;94.26;101826.00;5056509;28;20536;-74
2023/10/04 08:40:54;;;;;;;3.60;1.07;;;;;;;15.65;92.67;101826.53;5056172;28;20495;-73
2023/10/04 08:43:22;;;;;;;4.93;1.10;;;;;;;15.76;91.95;101830.69;5055670;28;20442;-74
2023/10/04 08:45:49;;;;;;;3.63;1.00;;;;;;;15.79;92.77;101829.25;5055528;28;20446;-74
2023/10/04 08:48:16;;;;;;;5.57;1.30;;;;;;;15.91;90.79;101829.53;5055930;28;20813;-73
2023/10/04 08:50:49;;;;;;;3.40;1.17;;;;;;;16.07;88.67;101840.94;5055883;28;20441;-74
2023/10/04 08:53:30;;;;;;;2.50;0.63;;;;;;;16.00;89.77;101824.97;5055893;28;20466;-73
2023/10/04 08:56:03;;;;;;;3.27;1.10;;;;;;;16.05;89.66;101834.97;5056205;28;20541;-73
2023/10/04 08:58:32;;;;;;;4.00;1.20;;;;;;;16.06;88.69;101851.06;5055847;28;20480;-73
2023/10/04 09:00:59;;;;;;;3.00;0.70;;;;;;;16.09;89.58;101836.00;5055337;28;21032;-73
2023/10/04 09:03:27;;;;;;;5.60;1.00;;;;;;;16.14;88.92;101844.88;5056055;28;20438;-74
2023/10/04 09:05:54;;;;;;;4.17;1.40;;;;;;;16.18;89.24;101847.81;5055710;28;20541;-74
2023/10/04 09:08:22;;;;;;;4.50;1.00;;;;;;;16.18;88.58;101849.75;5055212;28;20586;-73
2023/10/04 09:10:48;;;;;;;7.53;1.07;;;;;;;16.18;88.90;101850.53;5055692;28;20442;-73
2023/10/04 09:13:15;;;;;;;2.40;0.80;;;;;;;16.17;88.70;101846.19;5055485;28;20434;-74
2023/10/04 09:15:43;;;;;;;3.33;1.00;;;;;;;16.21;89.28;101847.19;5055354;28;20512;-74
2023/10/04 09:18:10;;;;;;;2.90;0.90;;;;;;;16.35;87.30;101858.91;5055466;28;20439;-74
2023/10/04 09:20:38;;;;;;;2.70;0.87;;;;;;;16.34;86.71;101857.28;5054972;28;20443;-74
2023/10/04 09:23:16;;;;;;;3.63;1.17;;;;;;;16.33;85.98;101866.59;5055337;28;20445;-74
2023/10/04 09:25:46;;;;;;;3.30;0.93;;;;;;;16.33;86.62;101863.03;5055377;28;20423;-73
2023/10/04 09:28:13;;;;;;;3.73;1.10;;;;;;;16.32;85.81;101872.38;5054962;28;20909;-75
2023/10/04 09:30:40;;;;;;;2.20;0.60;;;;;;;16.27;85.86;101862.38;5055265;28;20442;-74
2023/10/04 09:33:22;;;;;;;2.40;0.90;;;;;;;16.31;84.85;101866.09;5055361;28;20438;-74
2023/10/04 09:35:50;;;;;;;2.20;0.90;;;;;;;16.22;86.29;101854.28;5054911;28;20426;-74
2023/10/04 09:38:20;;;;;;;2.20;0.60;;;;;;;16.21;86.69;101857.34;5055325;28;20439;-74
2023/10/04 09:40:53;;;;;;;2.57;0.90;;;;;;;16.28;85.53;101861.25;5054767;28;21004;-74
2023/10/04 09:43:32;;;;;;;4.23;1.10;;;;;;;16.29;86.82;101860.16;5054879;28;20446;-74
2023/10/04 09:45:59;;;;;;;2.50;0.80;;;;;;;16.37;86.52;101862.13;5055183;28;20450;-74
2023/10/04 09:48:33;;;;;;;3.63;1.00;;;;;;;16.48;85.05;101864.66;5054757;28;20525;-74
2023/10/04 09:51:01;;;;;;;3.60;1.37;;;;;;;16.61;84.82;101872.78;5054705;28;20476;-74
2023/10/04 09:53:28;;;;;;;4.00;0.90;;;;;;;16.78;82.90;101869.41;5054642;28;20450;-74
2023/10/04 09:56:00;;;;;;;3.10;1.20;;;;;;;16.86;81.99;101865.09;5055109;28;20473;-74
2023/10/04 09:58:30;;;;;;;2.47;1.00;;;;;;;16.89;83.56;101878.16;5054675;28;20418;-74
2023/10/04 10:00:59;;;;;;;2.90;1.00;;;;;;;16.90;81.41;101874.31;5054839;28;20513;-74
2023/10/04 10:03:30;;;;;;;3.57;0.87;;;;;;;16.82;81.50;101875.88;5054175;28;20481;-74
2023/10/04 10:06:00;;;;;;;3.00;0.97;;;;;;;16.67;82.90;101878.94;5054788;28;20466;-74
2023/10/04 10:08:32;;;;;;;2.70;0.90;;;;;;;16.59;83.20;101876.94;5054031;28;20492;-74
2023/10/04 10:11:01;;;;;;;3.40;1.43;;;;;;;16.63;83.13;101883.41;5054101;28;20924;-74
2023/10/04 10:13:29;;;;;;;5.50;0.93;;;;;;;16.60;83.65;101886.75;5054031;28;20922;-73
2023/10/04 10:15:57;;;;;;;2.20;0.80;;;;;;;16.61;82.72;101885.66;5054438;28;20477;-74
2023/10/04 10:18:24;;;;;;;2.30;0.90;;;;;;;16.56;81.16;101894.00;5054302;28;21000;-74
2023/10/04 10:20:50;;;;;;;2.60;0.80;;;;;;;16.50;82.11;101882.34;5054144;28;20517;-74
2023/10/04 10:23:19;;;;;;;3.53;1.10;;;;;;;16.50;82.50;101889.75;5054468;28;20438;-74
2023/10/04 10:26:17;;;;;;;2.40;0.83;;;;;;;16.55;83.37;101895.09;5054042;28;20442;-74
2023/10/04 10:28:47;;;;;;;2.73;1.00;;;;;;;16.58;82.08;101900.75;5053739;28;20419;-73
2023/10/04 10:31:19;;;;;;;3.93;1.00;;;;;;;16.64;81.17;101898.72;5053905;28;20870;-75
2023/10/04 10:33:47;;;;;;;2.70;1.10;;;;;;;16.59;82.70;101899.63;5053918;28;20472;-75
2023/10/04 10:36:21;;;;;;;2.30;0.80;;;;;;;16.52;83.65;101906.66;5054140;28;20911;-74
2023/10/04 10:38:51;;;;;;;2.87;1.07;;;;;;;16.53;82.41;101892.69;5054091;28;20422;-74
2023/10/04 10:42:07;;;;;;;2.60;0.90;;;;;;;16.67;81.85;101889.88;5053767;28;20474;-74
2023/10/04 10:44:38;;;;;;;3.50;1.03;;;;;;;16.77;81.55;101886.94;5050887;28;20806;-75
2023/10/04 10:47:08;;;;;;;2.90;1.10;;;;;;;16.90;80.92;101880.56;5053944;28;20460;-74
2023/10/04 10:49:39;;;;;;;2.47;0.83;;;;;;;16.98;80.80;101878.22;5053741;28;20425;-74
2023/10/04 10:52:09;;;;;;;4.93;0.90;;;;;;;17.14;78.92;101890.41;5053681;28;20438;-74
2023/10/04 10:54:37;;;;;;;2.40;0.80;;;;;;;17.24;76.37;101892.88;5053954;28;20454;-74
2023/10/04 10:57:05;;;;;;;3.93;1.33;;;;;;;17.24;75.70;101883.84;5053891;28;20493;-74
2023/10/04 10:59:32;;;;;;;4.57;1.00;;;;;;;17.17;77.97;101883.47;5053620;28;20450;-74
2023/10/04 11:02:01;;;;;;;2.50;0.60;;;;;;;17.16;77.00;101896.38;5053195;28;21027;-74
2023/10/04 11:04:28;;;;;;;2.47;0.97;;;;;;;17.12;77.80;101898.91;5053541;28;20500;-74
2023/10/04 11:06:55;;;;;;;3.23;0.93;;;;;;;17.14;76.53;101906.84;5053218;28;20476;-73
2023/10/04 11:09:22;;;;;;;2.13;0.67;;;;;;;17.06;77.15;101897.44;5053161;28;20480;-74
2023/10/04 11:11:51;;;;;;;2.53;0.83;;;;;;;17.01;78.08;101902.25;5053131;28;20993;-74
2023/10/04 11:14:21;;;;;;;2.63;0.50;;;;;;;17.00;77.97;101904.19;5053493;28;20450;-74
2023/10/04 11:16:47;;;;;;;3.17;0.97;;;;;;;17.20;77.09;101911.06;5053442;28;20469;-74
2023/10/04 11:19:15;;;;;;;3.33;1.27;;;;;;;17.57;74.70;101914.47;5053484;28;20445;-74
2023/10/04 11:21:45;;;;;;;2.57;0.83;;;;;;;17.97;74.36;101922.69;5053418;28;20544;-74
2023/10/04 11:24:14;;;;;;;3.20;1.10;;;;;;;18.47;70.86;101914.09;5053310;28;20549;-74
2023/10/04 11:26:42;;;;;;;2.57;0.80;;;;;;;18.75;68.09;101912.66;5053176;28;20549;-74